Anchor W — WCX6436 — position and weather

sailwx.info

Track history (hours):
 
Tides and Currents Weather Stations Pressure Air Temp Water Temp Dewpoint Dewpoint Depression Visibility Wind Speed Wind Dir Waves Ship Positions

Anchor W

Owner: LEE JR, RHOADY, ISSAQUAH, WA. More information available from US FCC via Universal Licensing System and Coast Guard Vessel Documentation Center.

Last reported at 2018-Jul-22 21:16 UTC. Time now 2018-Jul-23 15:20 UTC.
Position N 48°41' W 123°12'.

; draft 2 m.

Type: Pleasure craft. MMSI: 366736890.

Date/timePositionNaut miles runAvg speedWind from/ knotsBaromVisibWave heightAir tempDewpointWater temp
2018-Jul-22 21:16N 48°41' W 123°12'5 6.1
2018-Jul-22 20:30N 48°38' W 123°06'3 5.6
2018-Jul-22 19:59N 48°37' W 123°10'2 0.4
2018-Jul-22 15:51N 48°36' W 123°09'0 0.0
2018-Jul-22 15:30N 48°36' W 123°09'0 0.0
2018-Jul-22 14:09N 48°36' W 123°09'0 0.0
2018-Jul-22 14:00N 48°36' W 123°09'0 0.0
2018-Jul-22 13:18N 48°36' W 123°09'0 0.0
2018-Jul-22 12:54N 48°36' W 123°09'0 0.0
2018-Jul-22 12:30N 48°36' W 123°09'0 0.0
2018-Jul-22 11:33N 48°36' W 123°09'0 0.0
2018-Jul-22 11:27N 48°36' W 123°09'0 0.0
2018-Jul-22 10:57N 48°36' W 123°09'0 0.0
2018-Jul-22 10:15N 48°36' W 123°09'0 0.0
2018-Jul-22 10:00N 48°36' W 123°09'0 0.0
2018-Jul-22 09:30N 48°36' W 123°09'0 0.0
2018-Jul-22 05:21N 48°36' W 123°09'0 0.0
2018-Jul-22 05:00N 48°36' W 123°09'0 0.0
2018-Jul-22 03:48N 48°36' W 123°09'0 0.0
2018-Jul-22 03:18N 48°36' W 123°09'0 0.0
2018-Jul-22 02:48N 48°36' W 123°09'0 0.0
2018-Jul-21 19:49N 48°36' W 123°10'1 3.8
2018-Jul-21 19:29N 48°35' W 123°11'3 6.9
2018-Jul-21 19:00N 48°31' W 123°10'2 4.4
2018-Jul-21 18:30N 48°33' W 123°11'4 7.1
2018-Jul-21 18:00N 48°37' W 123°12'2 0.5
2018-Jul-21 14:47N 48°37' W 123°09'1 0.0
2018-Jul-20 01:45N 48°37' W 123°10'3 9.5
2018-Jul-20 01:28N 48°38' W 123°06'613.5
2018-Jul-20 01:00N 48°33' W 122°59'712.8
2018-Jul-20 00:29N 48°27' W 122°57'3114.2
2018-Jul-19 22:19N 47°59' W 122°35'515.2
2018-Jul-19 21:59N 47°55' W 122°31'714.1
2018-Jul-19 21:30N 47°49' W 122°26'713.9
2018-Jul-19 21:00N 47°43' W 122°25'3 5.5
2018-Jul-19 20:30N 47°40' W 122°24'1 1.1
2018-Jul-19 20:01N 47°40' W 122°23'2 3.6
2018-Jul-19 19:30N 47°39' W 122°21'0 0.0
2018-Jul-19 19:00N 47°39' W 122°21'0 0.0
2018-Jul-19 18:30N 47°39' W 122°21'0 0.0
2018-Jul-19 18:00N 47°39' W 122°21'0 0.1
2018-Jul-19 17:30N 47°39' W 122°21'2 4.0
2018-Jul-19 17:00N 47°39' W 122°18'4 7.4
2018-Jul-19 16:30N 47°40' W 122°13'0 0.0
2018-Jul-19 10:36N 47°40' W 122°13'0 0.0
2018-Jul-19 10:30N 47°40' W 122°13'0 0.0
2018-Jul-19 10:00N 47°40' W 122°13'0 0.0
2018-Jul-19 09:21N 47°40' W 122°13'0 0.0
2018-Jul-19 08:48N 47°40' W 122°13'0 0.0
2018-Jul-19 08:21N 47°40' W 122°13'0 0.0
2018-Jul-19 07:54N 47°40' W 122°13'0 0.0
2018-Jul-19 07:27N 47°40' W 122°13'0 0.0
2018-Jul-19 07:00N 47°40' W 122°13'0 0.0
2018-Jul-19 06:18N 47°40' W 122°13'0 0.0
2018-Jul-19 05:54N 47°40' W 122°13'0 0.0
2018-Jul-19 05:24N 47°40' W 122°13'0 0.0
2018-Jul-19 02:09N 47°40' W 122°13'0 0.0
2018-Jul-19 01:48N 47°40' W 122°13'0 0.0
2018-Jul-18 23:12N 47°40' W 122°13'0 0.0
2018-Jul-18 22:45N 47°40' W 122°13'0 0.0
2018-Jul-18 22:30N 47°40' W 122°13'0 0.0
2018-Jul-18 20:42N 47°40' W 122°13'0 0.0
2018-Jul-18 20:21N 47°40' W 122°13'0 0.0
2018-Jul-18 19:54N 47°40' W 122°13'0 0.0
2018-Jul-18 19:30N 47°40' W 122°13'0 0.0
2018-Jul-18 19:00N 47°40' W 122°13'0 0.0
2018-Jul-18 18:30N 47°40' W 122°13'0 0.0
2018-Jul-18 18:00N 47°40' W 122°13'0 0.0
2018-Jul-18 17:18N 47°40' W 122°13'0 0.0
2018-Jul-18 17:00N 47°40' W 122°13'0 0.0
2018-Jul-18 16:12N 47°40' W 122°13'0 0.0
2018-Jul-18 15:42N 47°40' W 122°13'0 0.0
2018-Jul-18 15:24N 47°40' W 122°13'0 0.0
2018-Jul-18 15:00N 47°40' W 122°13'0 0.0
2018-Jul-18 14:30N 47°40' W 122°13'0 0.0
2018-Jul-18 13:27N 47°40' W 122°13'0 0.0
2018-Jul-18 12:57N 47°40' W 122°13'0 0.0
2018-Jul-18 12:30N 47°40' W 122°13'0 0.0
2018-Jul-18 11:57N 47°40' W 122°13'0 0.0
2018-Jul-18 11:30N 47°40' W 122°13'0 0.0
2018-Jul-18 10:30N 47°40' W 122°13'0 0.0
2018-Jul-18 09:57N 47°40' W 122°13'0 0.0
2018-Jul-18 09:30N 47°40' W 122°13'0 0.0
2018-Jul-18 09:00N 47°40' W 122°13'0 0.0
2018-Jul-18 08:27N 47°40' W 122°13'0 0.0
2018-Jul-18 08:00N 47°40' W 122°13'0 0.0
2018-Jul-18 07:21N 47°40' W 122°13'0 0.0
2018-Jul-18 06:57N 47°40' W 122°13'0 0.0
2018-Jul-18 06:27N 47°40' W 122°13'0 0.0
2018-Jul-18 05:57N 47°40' W 122°13'0 0.0
2018-Jul-18 05:24N 47°40' W 122°13'0 0.0
2018-Jul-18 05:00N 47°40' W 122°13'0 0.0
2018-Jul-18 04:24N 47°40' W 122°13'0 0.0
2018-Jul-18 02:24N 47°40' W 122°13'0 0.0
2018-Jul-18 00:00N 47°40' W 122°13'0 0.0
2018-Jul-17 22:15N 47°40' W 122°13'0 0.0
2018-Jul-17 21:21N 47°40' W 122°13'0 0.0
2018-Jul-17 20:57N 47°40' W 122°13'0 0.0
2018-Jul-17 20:27N 47°40' W 122°13'0 0.0
2018-Jul-17 19:57N 47°40' W 122°13'0 0.0
2018-Jul-17 10:45N 47°40' W 122°13'0 0.0
2018-Jul-17 10:18N 47°40' W 122°13'0 0.0
2018-Jul-17 10:00N 47°40' W 122°13'0 0.0
2018-Jul-17 09:27N 47°40' W 122°13'0 0.0
2018-Jul-17 08:48N 47°40' W 122°13'0 0.0
2018-Jul-17 08:21N 47°40' W 122°13'0 0.0
2018-Jul-17 08:00N 47°40' W 122°13'0 0.0
2018-Jul-17 07:30N 47°40' W 122°13'0 0.0
2018-Jul-17 06:42N 47°40' W 122°13'0 0.0
2018-Jul-17 06:30N 47°40' W 122°13'0 0.0
2018-Jul-17 05:54N 47°40' W 122°13'0 0.0
2018-Jul-17 05:30N 47°40' W 122°13'0 0.0
2018-Jul-17 05:00N 47°40' W 122°13'0 0.0
2018-Jul-17 04:18N 47°40' W 122°13'0 0.0
2018-Jul-15 13:17N 47°40' W 122°13'0 0.0
2018-Jul-15 12:51N 47°40' W 122°13'0 0.0
2018-Jul-15 12:30N 47°40' W 122°13'0 0.0
2018-Jul-15 11:59N 47°40' W 122°13'0 0.0
2018-Jul-15 11:30N 47°40' W 122°13'0 0.0
2018-Jul-15 10:56N 47°40' W 122°13'0 0.0
2018-Jul-15 10:29N 47°40' W 122°13'0 0.0
2018-Jul-15 09:59N 47°40' W 122°13'0 0.0
2018-Jul-15 09:27N 47°40' W 122°13'0 0.0
2018-Jul-15 08:56N 47°40' W 122°13'0 0.0
2018-Jul-15 08:26N 47°40' W 122°13'0 0.0
2018-Jul-15 07:56N 47°40' W 122°13'0 0.0
2018-Jul-15 07:26N 47°40' W 122°13'0 0.0
2018-Jul-15 06:56N 47°40' W 122°13'0 0.0
2018-Jul-14 23:05N 47°40' W 122°13'0 0.0
2018-Jul-14 22:50N 47°40' W 122°13'0 0.0
2018-Jul-14 22:26N 47°40' W 122°13'0 0.0
2018-Jul-14 20:56N 47°40' W 122°13'0 0.0
2018-Jul-14 20:26N 47°40' W 122°13'0 0.0
2018-Jul-14 19:50N 47°40' W 122°13'0 0.0
2018-Jul-14 19:14N 47°40' W 122°13'0 0.0
2018-Jul-14 18:56N 47°40' W 122°13'0 0.0
2018-Jul-14 18:14N 47°40' W 122°13'0 0.0
2018-Jul-14 13:36N 47°40' W 122°13'0 0.0
2018-Jul-14 13:14N 47°40' W 122°13'0 0.0
2018-Jul-14 12:59N 47°40' W 122°13'0 0.0
2018-Jul-14 12:26N 47°40' W 122°13'0 0.0
2018-Jul-14 11:59N 47°40' W 122°13'0 0.0
2018-Jul-14 11:29N 47°40' W 122°13'0 0.0
2018-Jul-14 10:56N 47°40' W 122°13'0 0.0
2018-Jul-14 10:26N 47°40' W 122°13'0 0.0
2018-Jul-14 09:59N 47°40' W 122°13'0 0.0
2018-Jul-14 09:26N 47°40' W 122°13'0 0.0
2018-Jul-14 08:59N 47°40' W 122°13'0 0.0
2018-Jul-14 08:29N 47°40' W 122°13'0 0.0
2018-Jul-14 07:59N 47°40' W 122°13'0 0.0
2018-Jul-14 07:23N 47°40' W 122°13'0 0.0
2018-Jul-14 06:59N 47°40' W 122°13'0 0.0
2018-Jul-14 06:26N 47°40' W 122°13'0 0.0
2018-Jul-14 05:59N 47°40' W 122°13'0 0.0
2018-Jul-14 05:29N 47°40' W 122°13'0 0.0
2018-Jul-14 04:59N 47°40' W 122°13'0 0.0
2018-Jul-14 04:23N 47°40' W 122°13'0 0.0
2018-Jul-14 03:59N 47°40' W 122°13'0 0.0
2018-Jul-14 03:23N 47°40' W 122°13'0 0.0
2018-Jul-14 02:41N 47°40' W 122°13'0 0.0
2018-Jul-14 02:29N 47°40' W 122°13'0 0.0
2018-Jul-14 01:59N 47°40' W 122°13'0 0.0
2018-Jul-14 01:29N 47°40' W 122°13'0 0.0
2018-Jul-14 00:59N 47°40' W 122°13'0 0.0
2018-Jul-13 23:33N 47°40' W 122°13'0 0.0
2018-Jul-13 23:29N 47°40' W 122°13'0 0.0
2018-Jul-13 22:56N 47°40' W 122°13'0 0.0
2018-Jul-13 10:50N 47°40' W 122°13'0 0.0
2018-Jul-13 10:26N 47°40' W 122°13'0 0.0
2018-Jul-13 09:56N 47°40' W 122°13'0 0.0
2018-Jul-13 09:23N 47°40' W 122°13'0 0.0
2018-Jul-13 08:59N 47°40' W 122°13'0 0.0
2018-Jul-13 08:29N 47°40' W 122°13'0 0.0
2018-Jul-13 07:59N 47°40' W 122°13'0 0.0
2018-Jul-13 07:29N 47°40' W 122°13'0 0.0
2018-Jul-13 06:59N 47°40' W 122°13'0 0.0
2018-Jul-13 06:29N 47°40' W 122°13'0 0.0
2018-Jul-13 05:56N 47°40' W 122°13'0 0.0
2018-Jul-13 05:29N 47°40' W 122°13'0 0.0
2018-Jul-13 04:59N 47°40' W 122°13'0 0.0
2018-Jul-13 04:26N 47°40' W 122°13'0 0.0
2018-Jul-13 03:59N 47°40' W 122°13'0 0.0
2018-Jul-13 03:29N 47°40' W 122°13'0 0.0
2018-Jul-13 02:53N 47°40' W 122°13'0 0.0
2018-Jul-13 02:23N 47°40' W 122°13'0 0.0
2018-Jul-13 01:59N 47°40' W 122°13'0 0.0
2018-Jul-13 01:17N 47°40' W 122°13'0 0.0
2018-Jul-13 00:53N 47°40' W 122°13'0 0.0
2018-Jul-13 00:29N 47°40' W 122°13'0 0.0
2018-Jul-12 23:59N 47°40' W 122°13'0 0.0
2018-Jul-12 23:05N 47°40' W 122°13'0 0.0
2018-Jul-12 22:59N 47°40' W 122°13'0 0.0
2018-Jul-12 22:26N 47°40' W 122°13'0 0.0
2018-Jul-12 21:59N 47°40' W 122°13'0 0.0
2018-Jul-12 21:29N 47°40' W 122°13'  
Track history (hours):
 
Tides and Currents Weather Stations Pressure Air Temp Water Temp Dewpoint Dewpoint Depression Visibility Wind Speed Wind Dir Waves Ship Positions

Anchor W

Owner: LEE JR, RHOADY, ISSAQUAH, WA. More information available from US FCC via Universal Licensing System and Coast Guard Vessel Documentation Center.

Last reported at 2018-Jul-22 21:16 UTC. Time now 2018-Jul-23 15:20 UTC.
Position N 48°41' W 123°12'.

; draft 2 m.

Type: Pleasure craft. MMSI: 366736890.

Date/timePositionNaut miles runAvg speedWind from/ knotsBaromVisibWave heightAir tempDewpointWater temp
2018-Jul-22 21:16N 48°41' W 123°12'5 6.1
2018-Jul-22 20:30N 48°38' W 123°06'3 5.6
2018-Jul-22 19:59N 48°37' W 123°10'2 0.4
2018-Jul-22 15:51N 48°36' W 123°09'0 0.0
2018-Jul-22 15:30N 48°36' W 123°09'0 0.0
2018-Jul-22 14:09N 48°36' W 123°09'0 0.0
2018-Jul-22 14:00N 48°36' W 123°09'0 0.0
2018-Jul-22 13:18N 48°36' W 123°09'0 0.0
2018-Jul-22 12:54N 48°36' W 123°09'0 0.0
2018-Jul-22 12:30N 48°36' W 123°09'0 0.0
2018-Jul-22 11:33N 48°36' W 123°09'0 0.0
2018-Jul-22 11:27N 48°36' W 123°09'0 0.0
2018-Jul-22 10:57N 48°36' W 123°09'0 0.0
2018-Jul-22 10:15N 48°36' W 123°09'0 0.0
2018-Jul-22 10:00N 48°36' W 123°09'0 0.0
2018-Jul-22 09:30N 48°36' W 123°09'0 0.0
2018-Jul-22 05:21N 48°36' W 123°09'0 0.0
2018-Jul-22 05:00N 48°36' W 123°09'0 0.0
2018-Jul-22 03:48N 48°36' W 123°09'0 0.0
2018-Jul-22 03:18N 48°36' W 123°09'0 0.0
2018-Jul-22 02:48N 48°36' W 123°09'0 0.0
2018-Jul-21 19:49N 48°36' W 123°10'1 3.8
2018-Jul-21 19:29N 48°35' W 123°11'3 6.9
2018-Jul-21 19:00N 48°31' W 123°10'2 4.4
2018-Jul-21 18:30N 48°33' W 123°11'4 7.1
2018-Jul-21 18:00N 48°37' W 123°12'2 0.5
2018-Jul-21 14:47N 48°37' W 123°09'1 0.0
2018-Jul-20 01:45N 48°37' W 123°10'3 9.5
2018-Jul-20 01:28N 48°38' W 123°06'613.5
2018-Jul-20 01:00N 48°33' W 122°59'712.8
2018-Jul-20 00:29N 48°27' W 122°57'3114.2
2018-Jul-19 22:19N 47°59' W 122°35'515.2
2018-Jul-19 21:59N 47°55' W 122°31'714.1
2018-Jul-19 21:30N 47°49' W 122°26'713.9
2018-Jul-19 21:00N 47°43' W 122°25'3 5.5
2018-Jul-19 20:30N 47°40' W 122°24'1 1.1
2018-Jul-19 20:01N 47°40' W 122°23'2 3.6
2018-Jul-19 19:30N 47°39' W 122°21'0 0.0
2018-Jul-19 19:00N 47°39' W 122°21'0 0.0
2018-Jul-19 18:30N 47°39' W 122°21'0 0.0
2018-Jul-19 18:00N 47°39' W 122°21'0 0.1
2018-Jul-19 17:30N 47°39' W 122°21'2 4.0
2018-Jul-19 17:00N 47°39' W 122°18'4 7.4
2018-Jul-19 16:30N 47°40' W 122°13'0 0.0
2018-Jul-19 10:36N 47°40' W 122°13'0 0.0
2018-Jul-19 10:30N 47°40' W 122°13'0 0.0
2018-Jul-19 10:00N 47°40' W 122°13'0 0.0
2018-Jul-19 09:21N 47°40' W 122°13'0 0.0
2018-Jul-19 08:48N 47°40' W 122°13'0 0.0
2018-Jul-19 08:21N 47°40' W 122°13'0 0.0
2018-Jul-19 07:54N 47°40' W 122°13'0 0.0
2018-Jul-19 07:27N 47°40' W 122°13'0 0.0
2018-Jul-19 07:00N 47°40' W 122°13'0 0.0
2018-Jul-19 06:18N 47°40' W 122°13'0 0.0
2018-Jul-19 05:54N 47°40' W 122°13'0 0.0
2018-Jul-19 05:24N 47°40' W 122°13'0 0.0
2018-Jul-19 02:09N 47°40' W 122°13'0 0.0
2018-Jul-19 01:48N 47°40' W 122°13'0 0.0
2018-Jul-18 23:12N 47°40' W 122°13'0 0.0
2018-Jul-18 22:45N 47°40' W 122°13'0 0.0
2018-Jul-18 22:30N 47°40' W 122°13'0 0.0
2018-Jul-18 20:42N 47°40' W 122°13'0 0.0
2018-Jul-18 20:21N 47°40' W 122°13'0 0.0
2018-Jul-18 19:54N 47°40' W 122°13'0 0.0
2018-Jul-18 19:30N 47°40' W 122°13'0 0.0
2018-Jul-18 19:00N 47°40' W 122°13'0 0.0
2018-Jul-18 18:30N 47°40' W 122°13'0 0.0
2018-Jul-18 18:00N 47°40' W 122°13'0 0.0
2018-Jul-18 17:18N 47°40' W 122°13'0 0.0
2018-Jul-18 17:00N 47°40' W 122°13'0 0.0
2018-Jul-18 16:12N 47°40' W 122°13'0 0.0
2018-Jul-18 15:42N 47°40' W 122°13'0 0.0
2018-Jul-18 15:24N 47°40' W 122°13'0 0.0
2018-Jul-18 15:00N 47°40' W 122°13'0 0.0
2018-Jul-18 14:30N 47°40' W 122°13'0 0.0
2018-Jul-18 13:27N 47°40' W 122°13'0 0.0
2018-Jul-18 12:57N 47°40' W 122°13'0 0.0
2018-Jul-18 12:30N 47°40' W 122°13'0 0.0
2018-Jul-18 11:57N 47°40' W 122°13'0 0.0
2018-Jul-18 11:30N 47°40' W 122°13'0 0.0
2018-Jul-18 10:30N 47°40' W 122°13'0 0.0
2018-Jul-18 09:57N 47°40' W 122°13'0 0.0
2018-Jul-18 09:30N 47°40' W 122°13'0 0.0
2018-Jul-18 09:00N 47°40' W 122°13'0 0.0
2018-Jul-18 08:27N 47°40' W 122°13'0 0.0
2018-Jul-18 08:00N 47°40' W 122°13'0 0.0
2018-Jul-18 07:21N 47°40' W 122°13'0 0.0
2018-Jul-18 06:57N 47°40' W 122°13'0 0.0
2018-Jul-18 06:27N 47°40' W 122°13'0 0.0
2018-Jul-18 05:57N 47°40' W 122°13'0 0.0
2018-Jul-18 05:24N 47°40' W 122°13'0 0.0
2018-Jul-18 05:00N 47°40' W 122°13'0 0.0
2018-Jul-18 04:24N 47°40' W 122°13'0 0.0
2018-Jul-18 02:24N 47°40' W 122°13'0 0.0
2018-Jul-18 00:00N 47°40' W 122°13'0 0.0
2018-Jul-17 22:15N 47°40' W 122°13'0 0.0
2018-Jul-17 21:21N 47°40' W 122°13'0 0.0
2018-Jul-17 20:57N 47°40' W 122°13'0 0.0
2018-Jul-17 20:27N 47°40' W 122°13'0 0.0
2018-Jul-17 19:57N 47°40' W 122°13'0 0.0
2018-Jul-17 10:45N 47°40' W 122°13'0 0.0
2018-Jul-17 10:18N 47°40' W 122°13'0 0.0
2018-Jul-17 10:00N 47°40' W 122°13'0 0.0
2018-Jul-17 09:27N 47°40' W 122°13'0 0.0
2018-Jul-17 08:48N 47°40' W 122°13'0 0.0
2018-Jul-17 08:21N 47°40' W 122°13'0 0.0
2018-Jul-17 08:00N 47°40' W 122°13'0 0.0
2018-Jul-17 07:30N 47°40' W 122°13'0 0.0
2018-Jul-17 06:42N 47°40' W 122°13'0 0.0
2018-Jul-17 06:30N 47°40' W 122°13'0 0.0
2018-Jul-17 05:54N 47°40' W 122°13'0 0.0
2018-Jul-17 05:30N 47°40' W 122°13'0 0.0
2018-Jul-17 05:00N 47°40' W 122°13'0 0.0
2018-Jul-17 04:18N 47°40' W 122°13'0 0.0
2018-Jul-15 13:17N 47°40' W 122°13'0 0.0
2018-Jul-15 12:51N 47°40' W 122°13'0 0.0
2018-Jul-15 12:30N 47°40' W 122°13'0 0.0
2018-Jul-15 11:59N 47°40' W 122°13'0 0.0
2018-Jul-15 11:30N 47°40' W 122°13'0 0.0
2018-Jul-15 10:56N 47°40' W 122°13'0 0.0
2018-Jul-15 10:29N 47°40' W 122°13'0 0.0
2018-Jul-15 09:59N 47°40' W 122°13'0 0.0
2018-Jul-15 09:27N 47°40' W 122°13'0 0.0
2018-Jul-15 08:56N 47°40' W 122°13'0 0.0
2018-Jul-15 08:26N 47°40' W 122°13'0 0.0
2018-Jul-15 07:56N 47°40' W 122°13'0 0.0
2018-Jul-15 07:26N 47°40' W 122°13'0 0.0
2018-Jul-15 06:56N 47°40' W 122°13'0 0.0
2018-Jul-14 23:05N 47°40' W 122°13'0 0.0
2018-Jul-14 22:50N 47°40' W 122°13'0 0.0
2018-Jul-14 22:26N 47°40' W 122°13'0 0.0
2018-Jul-14 20:56N 47°40' W 122°13'0 0.0
2018-Jul-14 20:26N 47°40' W 122°13'0 0.0
2018-Jul-14 19:50N 47°40' W 122°13'0 0.0
2018-Jul-14 19:14N 47°40' W 122°13'0 0.0
2018-Jul-14 18:56N 47°40' W 122°13'0 0.0
2018-Jul-14 18:14N 47°40' W 122°13'0 0.0
2018-Jul-14 13:36N 47°40' W 122°13'0 0.0
2018-Jul-14 13:14N 47°40' W 122°13'0 0.0
2018-Jul-14 12:59N 47°40' W 122°13'0 0.0
2018-Jul-14 12:26N 47°40' W 122°13'0 0.0
2018-Jul-14 11:59N 47°40' W 122°13'0 0.0
2018-Jul-14 11:29N 47°40' W 122°13'0 0.0
2018-Jul-14 10:56N 47°40' W 122°13'0 0.0
2018-Jul-14 10:26N 47°40' W 122°13'0 0.0
2018-Jul-14 09:59N 47°40' W 122°13'0 0.0
2018-Jul-14 09:26N 47°40' W 122°13'0 0.0
2018-Jul-14 08:59N 47°40' W 122°13'0 0.0
2018-Jul-14 08:29N 47°40' W 122°13'0 0.0
2018-Jul-14 07:59N 47°40' W 122°13'0 0.0
2018-Jul-14 07:23N 47°40' W 122°13'0 0.0
2018-Jul-14 06:59N 47°40' W 122°13'0 0.0
2018-Jul-14 06:26N 47°40' W 122°13'0 0.0
2018-Jul-14 05:59N 47°40' W 122°13'0 0.0
2018-Jul-14 05:29N 47°40' W 122°13'0 0.0
2018-Jul-14 04:59N 47°40' W 122°13'0 0.0
2018-Jul-14 04:23N 47°40' W 122°13'0 0.0
2018-Jul-14 03:59N 47°40' W 122°13'0 0.0
2018-Jul-14 03:23N 47°40' W 122°13'0 0.0
2018-Jul-14 02:41N 47°40' W 122°13'0 0.0
2018-Jul-14 02:29N 47°40' W 122°13'0 0.0
2018-Jul-14 01:59N 47°40' W 122°13'0 0.0
2018-Jul-14 01:29N 47°40' W 122°13'0 0.0
2018-Jul-14 00:59N 47°40' W 122°13'0 0.0
2018-Jul-13 23:33N 47°40' W 122°13'0 0.0
2018-Jul-13 23:29N 47°40' W 122°13'0 0.0
2018-Jul-13 22:56N 47°40' W 122°13'0 0.0
2018-Jul-13 10:50N 47°40' W 122°13'0 0.0
2018-Jul-13 10:26N 47°40' W 122°13'0 0.0
2018-Jul-13 09:56N 47°40' W 122°13'0 0.0
2018-Jul-13 09:23N 47°40' W 122°13'0 0.0
2018-Jul-13 08:59N 47°40' W 122°13'0 0.0
2018-Jul-13 08:29N 47°40' W 122°13'0 0.0
2018-Jul-13 07:59N 47°40' W 122°13'0 0.0
2018-Jul-13 07:29N 47°40' W 122°13'0 0.0
2018-Jul-13 06:59N 47°40' W 122°13'0 0.0
2018-Jul-13 06:29N 47°40' W 122°13'0 0.0
2018-Jul-13 05:56N 47°40' W 122°13'0 0.0
2018-Jul-13 05:29N 47°40' W 122°13'0 0.0
2018-Jul-13 04:59N 47°40' W 122°13'0 0.0
2018-Jul-13 04:26N 47°40' W 122°13'0 0.0
2018-Jul-13 03:59N 47°40' W 122°13'0 0.0
2018-Jul-13 03:29N 47°40' W 122°13'0 0.0
2018-Jul-13 02:53N 47°40' W 122°13'0 0.0
2018-Jul-13 02:23N 47°40' W 122°13'0 0.0
2018-Jul-13 01:59N 47°40' W 122°13'0 0.0
2018-Jul-13 01:17N 47°40' W 122°13'0 0.0
2018-Jul-13 00:53N 47°40' W 122°13'0 0.0
2018-Jul-13 00:29N 47°40' W 122°13'0 0.0
2018-Jul-12 23:59N 47°40' W 122°13'0 0.0
2018-Jul-12 23:05N 47°40' W 122°13'0 0.0
2018-Jul-12 22:59N 47°40' W 122°13'0 0.0
2018-Jul-12 22:26N 47°40' W 122°13'0 0.0
2018-Jul-12 21:59N 47°40' W 122°13'0 0.0
2018-Jul-12 21:29N 47°40' W 122°13'  

Dump ship's entire track history